Time;durP1;ratioP1;P1;durP2;ratioP2;P2;SDS_P1;SDS_P2;PMS_P1;PMS_P2;Temp;Humidity;BMP_temperature;BMP_pressure;BME280_temperature;BME280_humidity;BME280_pressure;Samples;Min_cycle;Max_cycle;Signal;HPM_P1;HPM_P2
2021/03/26 00:01:31;;;;;;;110.52;40.98;;;;;;;19.68;29.65;156300.87;1729367;81;21336;-79
2021/03/26 00:04:06;;;;;;;112.45;41.73;;;;;;;19.55;29.71;156267.86;1729137;83;21213;-79
2021/03/26 00:06:43;;;;;;;115.45;42.00;;;;;;;19.52;29.73;156258.56;1727044;81;21375;-80
2021/03/26 00:09:23;;;;;;;112.05;45.15;;;;;;;19.56;29.66;156270.45;1728667;82;21321;-79
2021/03/26 00:11:58;;;;;;;;;;;;;;;19.55;29.63;156267.86;1731839;81;21202;-80
2021/03/26 00:14:31;;;;;;;119.05;41.85;;;;;;;19.55;29.55;156266.50;1729564;83;20344;-80
2021/03/26 00:17:04;;;;;;;123.35;44.73;;;;;;;19.44;29.65;156237.45;1729253;83;21355;-80
2021/03/26 00:19:38;;;;;;;124.55;47.62;;;;;;;19.36;29.67;156217.62;1729296;81;21384;-80
2021/03/26 00:22:11;;;;;;;118.57;47.30;;;;;;;19.37;29.65;156218.97;1729134;83;21185;-80
2021/03/26 00:24:44;;;;;;;124.87;44.38;;;;;;;19.26;29.59;156191.22;1729214;83;21371;-79
2021/03/26 00:27:17;;;;;;;118.77;46.25;;;;;;;19.26;29.68;156191.22;1729193;83;21380;-80
2021/03/26 00:29:49;;;;;;;135.48;45.03;;;;;;;19.28;29.64;156195.16;1721884;83;21189;-80
2021/03/26 00:32:22;;;;;;;110.80;43.58;;;;;;;19.31;29.58;156204.44;1739996;82;21719;-80
2021/03/26 00:34:55;;;;;;;120.80;43.80;;;;;;;19.30;29.60;156200.44;1701782;82;21388;-80
2021/03/26 00:37:29;;;;;;;125.27;45.43;;;;;;;19.26;29.65;156191.22;1738036;82;21166;-80
2021/03/26 00:40:03;;;;;;;120.22;47.67;;;;;;;19.24;29.66;156185.92;1672074;84;21225;-80
2021/03/26 00:42:36;;;;;;;121.82;46.55;;;;;;;19.27;29.68;156192.50;1701683;82;21915;-80
2021/03/26 00:45:11;;;;;;;125.72;48.83;;;;;;;19.27;29.73;156192.50;1740215;82;21793;-80
2021/03/26 00:47:45;;;;;;;129.32;49.33;;;;;;;19.41;29.60;156229.50;1704951;83;21376;-80
2021/03/26 00:50:22;;;;;;;145.53;51.75;;;;;;;19.46;29.54;156244.03;1714299;82;21210;-79
2021/03/26 00:52:57;;;;;;;149.50;54.63;;;;;;;19.47;29.55;156246.69;1707242;83;21237;-79
2021/03/26 00:55:30;;;;;;;126.92;48.05;;;;;;;19.41;29.48;156229.50;1698609;84;21261;-80
2021/03/26 00:58:04;;;;;;;172.07;55.30;;;;;;;19.38;29.54;156222.91;1728018;83;21650;-80
2021/03/26 01:00:39;;;;;;;177.02;57.60;;;;;;;19.38;29.50;156222.91;1728250;82;21262;-80
2021/03/26 01:03:13;;;;;;;162.27;58.17;;;;;;;19.34;29.62;156212.33;1753553;81;21346;-78
2021/03/26 01:05:51;;;;;;;165.28;57.73;;;;;;;19.29;29.82;156197.81;1727818;83;22057;-78
2021/03/26 01:08:24;;;;;;;158.82;58.48;;;;;;;19.18;29.99;156168.75;1753487;81;21186;-79
2021/03/26 01:11:06;;;;;;;163.00;58.28;;;;;;;19.03;30.20;156130.41;1753633;80;21173;-80
2021/03/26 01:13:39;;;;;;;162.15;56.45;;;;;;;19.13;30.12;156156.86;1727926;83;21186;-79
2021/03/26 01:16:15;;;;;;;160.03;53.80;;;;;;;19.04;30.23;156133.05;1722119;83;21320;-79
2021/03/26 01:18:50;;;;;;;141.85;53.95;;;;;;;19.11;30.21;156151.58;1727495;83;21209;-80
2021/03/26 01:21:31;;;;;;;143.17;52.53;;;;;;;19.10;30.16;156148.88;1688465;84;21855;-80
2021/03/26 01:24:06;;;;;;;141.25;52.67;;;;;;;19.12;30.11;156152.92;1737791;82;21831;-80
2021/03/26 01:26:39;;;;;;;152.85;55.75;;;;;;;19.01;30.10;156122.47;1723571;83;21374;-80
2021/03/26 01:29:17;;;;;;;163.80;59.50;;;;;;;18.91;30.04;156097.41;1720160;81;21220;-79
2021/03/26 01:31:57;;;;;;;178.02;65.78;;;;;;;18.80;30.07;156067.02;1757852;80;21354;-80
2021/03/26 01:34:30;;;;;;;198.28;71.70;;;;;;;18.74;30.04;156051.19;1755418;81;21220;-80
2021/03/26 01:37:05;;;;;;;193.68;70.50;;;;;;;18.69;30.04;156039.27;1727135;83;21399;-79
2021/03/26 01:39:45;;;;;;;198.23;67.85;;;;;;;18.74;29.93;156051.19;1722133;83;21673;-80
2021/03/26 01:42:26;;;;;;;206.82;70.67;;;;;;;18.74;29.76;156052.50;1722016;83;21225;-80
2021/03/26 01:45:00;;;;;;;225.20;76.82;;;;;;;18.68;29.82;156036.69;1712819;83;21192;-80
2021/03/26 01:47:34;;;;;;;212.32;74.53;;;;;;;18.70;29.87;156040.63;1724609;83;21293;-80
2021/03/26 01:50:10;;;;;;;166.22;58.48;;;;;;;18.76;29.62;156056.44;1753908;81;21358;-80
2021/03/26 01:52:43;;;;;;;139.88;49.35;;;;;;;18.82;29.51;156072.31;1727075;83;21352;-80
2021/03/26 01:55:44;;;;;;;132.75;41.48;;;;;;;18.87;29.19;156086.83;1720333;83;21714;-80
2021/03/26 01:58:20;;;;;;;104.35;34.23;;;;;;;18.97;29.00;156111.94;1737802;82;21292;-79
2021/03/26 02:01:04;;;;;;;99.83;33.05;;;;;;;19.26;28.64;156191.22;1753582;81;21252;-79
2021/03/26 02:03:43;;;;;;;95.07;29.90;;;;;;;19.26;28.39;156191.22;1708328;84;22453;-78
2021/03/26 02:06:29;;;;;;;97.00;30.57;;;;;;;19.30;28.19;156201.80;1703232;83;22405;-78
2021/03/26 02:09:16;;;;;;;97.45;35.35;;;;;;;19.40;28.16;156226.86;1691235;85;21257;-78
2021/03/26 02:11:53;;;;;;;115.17;37.93;;;;;;;19.50;28.10;156254.62;1678582;84;21399;-78
2021/03/26 02:14:36;;;;;;;129.65;42.05;;;;;;;19.51;28.23;156257.28;1704011;83;21832;-78
2021/03/26 02:17:21;;;;;;;153.82;51.35;;;;;;;19.48;28.26;156248.03;1721849;83;21717;-79
2021/03/26 02:20:08;;;;;;;146.68;50.78;;;;;;;19.46;28.48;156244.03;1738837;82;21220;-79
2021/03/26 02:22:42;;;;;;;147.20;50.15;;;;;;;19.43;28.64;156236.16;1742630;82;21158;-78
2021/03/26 02:25:18;;;;;;;138.52;49.25;;;;;;;19.54;28.61;156263.88;1745185;82;22322;-78
2021/03/26 02:27:52;;;;;;;138.15;48.02;;;;;;;19.45;28.77;156241.39;1721791;83;21482;-79
2021/03/26 02:30:29;;;;;;;142.62;50.50;;;;;;;19.39;28.81;156224.22;1721728;83;21383;-79
2021/03/26 02:33:03;;;;;;;123.97;45.55;;;;;;;19.33;28.82;156208.39;1701642;84;21340;-79
2021/03/26 02:35:40;;;;;;;134.27;44.18;;;;;;;19.26;28.78;156191.22;1717435;83;21237;-79
2021/03/26 02:38:33;;;;;;;101.27;38.80;;;;;;;19.30;28.67;156201.80;1681434;83;21335;-79
2021/03/26 02:41:24;;;;;;;114.55;41.15;;;;;;;19.29;28.71;156199.16;1724099;83;21219;-79
2021/03/26 02:44:35;;;;;;;110.20;41.33;;;;;;;19.32;28.79;156205.75;1752721;82;21312;-79
2021/03/26 02:47:27;;;;;;;117.50;42.62;;;;;;;19.33;28.88;156209.69;1752516;82;21359;-78
2021/03/26 02:50:33;;;;;;;101.27;35.98;;;;;;;19.31;28.89;156203.09;1750950;82;21327;-79
2021/03/26 02:53:20;;;;;;;90.57;33.63;;;;;;;19.28;28.89;156195.16;1726282;82;21303;-79
2021/03/26 02:56:09;;;;;;;78.12;33.53;;;;;;;19.30;28.77;156200.44;1724166;83;21268;-77
2021/03/26 02:58:54;;;;;;;93.45;34.48;;;;;;;19.30;28.95;156200.44;1724456;83;21237;-77
2021/03/26 03:01:45;;;;;;;84.17;33.63;;;;;;;19.30;29.01;156201.80;1724226;83;21285;-77
2021/03/26 03:04:40;;;;;;;73.78;32.08;;;;;;;19.25;28.91;156187.27;1731546;81;21352;-78
2021/03/26 03:07:16;;;;;;;72.58;30.72;;;;;;;19.17;29.01;156167.45;1720163;82;21340;-78
2021/03/26 03:10:30;;;;;;;68.80;28.65;;;;;;;19.10;29.03;156148.88;1695913;83;21208;-80
2021/03/26 03:13:28;;;;;;;64.77;26.45;;;;;;;19.06;29.04;156138.34;1696714;84;21275;-79
2021/03/26 03:16:15;;;;;;;70.67;26.20;;;;;;;19.00;29.00;156121.17;1679318;84;21367;-79
2021/03/26 03:19:09;;;;;;;57.27;24.00;;;;;;;18.95;28.98;156106.64;1678265;84;21898;-78
2021/03/26 03:21:55;;;;;;;58.55;21.68;;;;;;;18.98;28.84;156114.58;1700228;83;21232;-78
2021/03/26 03:24:39;;;;;;;58.42;22.67;;;;;;;19.04;28.62;156133.05;1710417;83;21273;-79
2021/03/26 03:27:42;;;;;;;56.53;20.68;;;;;;;19.09;28.51;156146.28;1676144;84;21376;-79
2021/03/26 03:30:31;;;;;;;49.73;18.62;;;;;;;19.14;28.19;156159.52;1713833;83;21439;-80
2021/03/26 03:33:40;;;;;;;55.00;20.32;;;;;;;19.26;27.95;156189.91;1719089;83;21867;-80
2021/03/26 03:36:20;;;;;;;52.98;20.90;;;;;;;19.35;27.66;156214.97;1732903;82;21307;-78
2021/03/26 03:39:13;;;;;;;44.15;18.27;;;;;;;19.49;27.47;156250.69;1720123;82;21401;-78
2021/03/26 03:42:00;;;;;;;;;;;;;;;19.57;27.29;156273.09;1723223;82;21187;-78
2021/03/26 03:44:41;;;;;;;44.15;16.32;;;;;;;19.69;27.10;156303.52;1693456;83;20231;-77
2021/03/26 03:47:27;;;;;;;41.10;16.23;;;;;;;19.74;27.02;156318.06;1693700;83;21221;-78
2021/03/26 03:50:12;;;;;;;45.10;16.48;;;;;;;19.80;26.91;156332.58;1699202;83;21553;-78
2021/03/26 03:53:16;;;;;;;43.13;15.75;;;;;;;19.93;26.77;156368.25;1721531;82;21180;-79
2021/03/26 03:56:13;;;;;;;37.25;14.73;;;;;;;19.98;26.72;156381.53;1711746;82;21216;-78
2021/03/26 03:59:03;;;;;;;38.00;14.70;;;;;;;20.01;26.61;156390.78;1705739;83;21197;-78
2021/03/26 04:01:50;;;;;;;32.57;13.90;;;;;;;20.05;26.62;156400.03;1688181;83;21367;-78
2021/03/26 04:04:50;;;;;;;37.30;13.93;;;;;;;20.19;26.55;156437.05;1696268;81;22120;-79
2021/03/26 04:07:25;;;;;;;31.65;11.93;;;;;;;20.34;26.45;156478.02;1703304;83;21426;-78
2021/03/26 04:10:02;;;;;;;26.48;12.43;;;;;;;20.36;26.34;156483.31;1748041;82;21280;-79
2021/03/26 04:12:40;;;;;;;28.50;11.28;;;;;;;20.44;26.24;156503.16;1751716;81;21268;-79
2021/03/26 04:15:36;;;;;;;31.87;12.53;;;;;;;20.45;26.15;156505.81;1751170;82;21362;-79
2021/03/26 04:18:21;;;;;;;24.63;11.30;;;;;;;20.49;26.18;156517.70;1676568;83;21887;-78
2021/03/26 04:21:21;;;;;;;25.20;11.40;;;;;;;20.52;26.15;156525.66;1724409;82;21209;-79
2021/03/26 04:24:33;;;;;;;24.27;11.60;;;;;;;20.55;26.04;156532.25;1741480;82;21692;-80
2021/03/26 04:27:31;;;;;;;21.62;10.68;;;;;;;20.63;26.06;156553.39;1606509;88;21232;-79
2021/03/26 04:30:29;;;;;;;24.70;11.20;;;;;;;20.65;26.08;156558.69;1624143;85;21297;-78
2021/03/26 04:33:22;;;;;;;27.32;11.18;;;;;;;20.67;26.11;156563.98;1723734;82;21869;-75
2021/03/26 04:35:55;;;;;;;32.38;13.78;;;;;;;20.76;26.11;156589.13;1730653;81;21407;-84
2021/03/26 04:38:56;;;;;;;27.58;12.53;;;;;;;20.80;26.10;156598.42;1720915;82;21182;-74
2021/03/26 04:42:01;;;;;;;23.87;10.78;;;;;;;20.83;26.10;156606.38;1721750;82;21167;-79
2021/03/26 04:44:56;;;;;;;25.90;11.20;;;;;;;20.90;26.17;156626.17;1723335;82;21324;-79
2021/03/26 04:47:35;;;;;;;37.63;13.88;;;;;;;20.91;26.17;156628.81;1718511;82;21376;-78
2021/03/26 04:50:23;;;;;;;26.40;12.07;;;;;;;20.98;26.16;156648.67;1714307;82;21371;-78
2021/03/26 04:53:15;;;;;;;28.17;12.33;;;;;;;20.98;26.26;156647.37;1717488;82;21240;-78
2021/03/26 04:55:58;;;;;;;30.50;11.65;;;;;;;20.94;26.36;156638.12;1724747;82;21328;-77
2021/03/26 04:58:53;;;;;;;39.57;12.43;;;;;;;21.04;26.38;156664.58;1719076;82;21831;-79
2021/03/26 05:01:45;;;;;;;23.95;11.97;;;;;;;21.12;26.47;156685.72;1721477;81;21257;-79
2021/03/26 05:04:25;;;;;;;28.98;12.58;;;;;;;21.19;26.43;156702.92;1733428;81;21970;-79
2021/03/26 05:07:06;;;;;;;25.47;12.03;;;;;;;21.31;26.41;156734.69;1725927;82;21245;-79
2021/03/26 05:09:41;;;;;;;33.00;13.03;;;;;;;21.37;26.50;156751.89;1723693;82;21269;-83
2021/03/26 05:12:27;;;;;;;27.80;11.68;;;;;;;21.44;26.42;156770.39;1718145;82;21403;-82
2021/03/26 05:15:17;;;;;;;32.25;12.50;;;;;;;21.49;26.32;156783.66;1720332;82;21289;-83
2021/03/26 05:18:04;;;;;;;31.52;12.90;;;;;;;21.53;26.38;156794.20;1720127;82;21344;-83
2021/03/26 05:20:55;;;;;;;33.65;13.88;;;;;;;21.57;26.38;156804.86;1717326;82;21328;-84
2021/03/26 05:23:37;;;;;;;35.88;13.95;;;;;;;21.67;26.25;156830.02;1713157;82;21229;-88
2021/03/26 05:26:29;;;;;;;36.23;14.10;;;;;;;21.81;26.17;156867.09;1718114;82;21856;-80
2021/03/26 05:29:19;;;;;;;32.85;13.85;;;;;;;21.89;26.21;156890.91;1670981;82;21264;-81
2021/03/26 05:32:14;;;;;;;32.80;12.80;;;;;;;21.99;26.24;156916.03;1724314;82;22161;-80
2021/03/26 05:35:41;;;;;;;31.55;12.47;;;;;;;22.01;26.34;156922.69;1722936;80;21324;-80
2021/03/26 05:38:35;;;;;;;35.08;12.55;;;;;;;22.10;26.29;156946.50;1706444;82;21190;-80
2021/03/26 05:42:01;;;;;;;30.90;12.65;;;;;;;22.15;26.04;156959.77;1728526;82;21387;-81
2021/03/26 05:45:05;;;;;;;31.90;12.95;;;;;;;22.30;25.90;156999.45;1721279;82;21418;-84
2021/03/26 05:48:42;;;;;;;40.67;13.00;;;;;;;22.38;25.90;157019.38;1723263;81;21218;-79
2021/03/26 05:51:54;;;;;;;35.28;12.65;;;;;;;22.52;25.88;157057.77;1729588;82;21403;-78
2021/03/26 05:55:01;;;;;;;26.75;10.60;;;;;;;23.00;25.50;157186.31;1722790;82;21209;-76
2021/03/26 05:57:57;;;;;;;35.40;12.70;;;;;;;22.96;25.45;157174.39;1722518;80;21220;-76
2021/03/26 06:00:42;;;;;;;34.48;11.73;;;;;;;22.89;25.43;157157.16;1724128;82;21753;-76
2021/03/26 06:04:04;;;;;;;35.08;11.50;;;;;;;23.02;25.46;157191.61;1725501;82;21193;-76
2021/03/26 06:07:25;;;;;;;26.15;10.53;;;;;;;23.15;25.45;157224.78;1719927;82;21313;-74
2021/03/26 06:10:49;;;;;;;26.33;10.45;;;;;;;23.29;25.29;157263.19;1735404;82;21182;-75
2021/03/26 06:14:15;;;;;;;28.40;10.03;;;;;;;23.46;25.19;157308.28;1738117;82;21225;-75
2021/03/26 06:17:32;;;;;;;23.77;9.28;;;;;;;23.56;25.23;157334.78;1727522;82;21720;-77
2021/03/26 06:20:39;;;;;;;34.60;11.38;;;;;;;23.66;25.14;157359.98;1743783;82;21752;-75
2021/03/26 06:24:18;;;;;;;30.05;10.80;;;;;;;23.74;25.03;157382.48;1687294;84;21253;-75
2021/03/26 06:27:21;;;;;;;33.92;11.08;;;;;;;23.84;25.05;157410.41;1687164;85;21780;-75
2021/03/26 06:30:19;;;;;;;27.62;10.35;;;;;;;23.97;24.69;157443.53;1640985;83;21276;-75
2021/03/26 06:33:40;;;;;;;26.30;10.23;;;;;;;24.05;24.83;157466.08;1692307;83;21289;-75
2021/03/26 06:36:30;;;;;;;36.10;10.10;;;;;;;24.17;24.90;157496.61;1737511;81;21371;-75
2021/03/26 06:39:29;;;;;;;38.08;10.23;;;;;;;24.34;24.86;157541.69;1721585;83;21372;-78
2021/03/26 06:42:13;;;;;;;33.83;10.32;;;;;;;24.39;24.81;157556.27;1721576;83;21828;-75
2021/03/26 06:45:26;;;;;;;30.95;11.15;;;;;;;24.50;24.76;157585.50;1721673;81;21210;-75
2021/03/26 06:48:25;;;;;;;25.10;8.58;;;;;;;24.67;24.62;157631.94;1739502;82;21399;-76
2021/03/26 06:51:35;;;;;;;27.60;10.05;;;;;;;24.95;24.57;157704.91;1721774;83;21336;-77
2021/03/26 06:54:33;;;;;;;34.70;10.15;;;;;;;25.02;24.48;157724.81;1695755;83;21337;-76
2021/03/26 06:57:45;;;;;;;25.85;10.13;;;;;;;25.04;24.49;157728.84;1739314;82;21221;-77
2021/03/26 07:00:44;;;;;;;24.10;8.75;;;;;;;25.17;24.53;157763.41;1720995;83;21355;-78
2021/03/26 07:03:34;;;;;;;29.92;10.58;;;;;;;25.30;24.44;157797.86;1720773;83;21324;-76
2021/03/26 07:07:04;;;;;;;29.75;10.72;;;;;;;25.42;24.49;157829.73;1737566;81;21245;-75
2021/03/26 07:10:16;;;;;;;31.68;10.55;;;;;;;25.50;24.41;157852.31;1719876;83;21359;-76
2021/03/26 07:13:28;;;;;;;31.90;11.28;;;;;;;25.72;24.44;157910.72;1718661;81;21268;-76
2021/03/26 07:16:35;;;;;;;25.45;9.28;;;;;;;25.67;24.33;157898.78;1732704;82;21376;-76
2021/03/26 07:19:25;;;;;;;28.05;9.98;;;;;;;25.79;24.27;157929.41;1725294;82;21359;-76
2021/03/26 07:22:34;;;;;;;29.57;9.90;;;;;;;25.94;24.24;157969.20;1708200;84;21274;-77
2021/03/26 07:25:22;;;;;;;33.33;9.60;;;;;;;26.14;24.19;158022.36;1693205;83;21256;-76
2021/03/26 07:28:37;;;;;;;24.85;9.23;;;;;;;26.26;24.26;158054.25;1721339;83;21406;-76
2021/03/26 07:31:14;;;;;;;26.35;8.98;;;;;;;26.38;24.16;158086.13;1717915;83;21213;-76
2021/03/26 07:34:26;;;;;;;31.05;10.82;;;;;;;26.48;24.00;158112.75;1723466;83;21321;-76
2021/03/26 07:37:37;;;;;;;29.45;8.73;;;;;;;26.63;23.99;158155.25;1723569;83;21221;-76
2021/03/26 07:40:38;;;;;;;27.75;8.78;;;;;;;26.82;23.80;158205.77;1723496;83;21193;-75
2021/03/26 07:43:54;;;;;;;23.55;9.28;;;;;;;27.02;23.58;158258.97;1719473;83;21202;-76
2021/03/26 07:47:13;;;;;;;24.20;9.53;;;;;;;27.15;23.58;158292.19;1723496;83;21185;-76
2021/03/26 07:50:28;;;;;;;22.17;8.58;;;;;;;27.43;23.38;158367.95;1694890;84;21297;-76
2021/03/26 07:53:25;;;;;;;20.85;8.10;;;;;;;27.62;23.16;158419.83;1704844;83;21257;-78
2021/03/26 07:56:15;;;;;;;22.20;7.70;;;;;;;27.81;22.87;158469.09;1719473;83;22384;-77
2021/03/26 07:59:25;;;;;;;19.95;7.97;;;;;;;27.79;22.97;158465.12;1723530;83;21274;-77
2021/03/26 08:02:21;;;;;;;18.70;6.90;;;;;;;27.94;22.54;158505.03;1723377;83;21392;-77
2021/03/26 08:05:17;;;;;;;21.20;6.60;;;;;;;28.11;22.65;158550.23;1706608;83;21249;-77
2021/03/26 08:08:01;;;;;;;22.02;7.03;;;;;;;28.27;22.65;158591.52;1725379;81;21252;-78
2021/03/26 08:10:50;;;;;;;13.85;6.85;;;;;;;28.40;22.57;158626.13;1726727;83;21361;-78
2021/03/26 08:13:34;;;;;;;20.88;7.72;;;;;;;28.51;22.49;158658.06;1709991;83;21396;-78
2021/03/26 08:16:44;;;;;;;16.48;6.65;;;;;;;28.66;22.39;158696.64;1726721;83;21748;-78
2021/03/26 08:19:29;;;;;;;19.17;6.10;;;;;;;28.89;22.38;158757.92;1727113;83;21395;-78
2021/03/26 08:22:35;;;;;;;19.57;6.60;;;;;;;29.22;22.12;158845.83;1726750;83;22382;-78
2021/03/26 08:25:48;;;;;;;15.15;5.97;;;;;;;29.39;22.13;158893.78;1712897;83;21724;-78
2021/03/26 08:28:42;;;;;;;22.82;6.50;;;;;;;29.52;21.50;158927.06;1707304;83;21174;-78
2021/03/26 08:31:38;;;;;;;19.48;5.87;;;;;;;29.54;21.50;158932.39;1726788;83;21697;-77
2021/03/26 08:34:44;;;;;;;14.25;5.30;;;;;;;29.46;21.72;158911.09;1726989;81;21277;-78
2021/03/26 08:37:34;;;;;;;17.98;6.80;;;;;;;29.59;21.51;158947.03;1727047;83;21293;-78
2021/03/26 08:40:09;;;;;;;17.35;5.45;;;;;;;29.87;21.30;159021.66;1725548;82;21336;-80
2021/03/26 08:42:45;;;;;;;13.70;5.00;;;;;;;30.55;20.97;159204.31;1718789;83;21851;-80
2021/03/26 08:45:34;;;;;;;12.10;4.85;;;;;;;32.33;20.33;159681.86;1658353;85;21733;-79
2021/03/26 08:48:21;;;;;;;14.68;5.33;;;;;;;34.22;19.57;160188.16;1726561;83;21185;-80
2021/03/26 08:51:35;;;;;;;16.62;5.10;;;;;;;35.94;18.96;160649.59;1692112;83;21415;-78
2021/03/26 08:54:42;;;;;;;11.75;5.03;;;;;;;37.27;18.20;161008.41;1722710;83;21220;-79
2021/03/26 08:57:41;;;;;;;8.58;4.22;;;;;;;38.55;17.69;161354.19;1727352;82;21326;-79
2021/03/26 09:00:39;;;;;;;11.43;4.42;;;;;;;39.58;16.80;161630.53;1700562;83;21256;-79
2021/03/26 09:03:29;;;;;;;8.93;4.72;;;;;;;41.02;16.36;162021.09;1704732;83;21287;-79
2021/03/26 09:06:45;;;;;;;10.38;4.50;;;;;;;42.28;15.29;162360.92;1703254;84;21252;-80
2021/03/26 09:09:42;;;;;;;18.17;6.03;;;;;;;42.99;14.68;162553.19;1717784;81;21202;-80
2021/03/26 09:12:34;;;;;;;11.12;4.75;;;;;;;43.76;14.39;162758.89;1707722;83;21212;-80
2021/03/26 09:15:53;;;;;;;12.88;5.28;;;;;;;44.22;14.35;162884.02;1724229;83;21221;-80
2021/03/26 09:18:34;;;;;;;16.48;5.78;;;;;;;44.41;14.03;162935.16;1724428;83;21199;-80
2021/03/26 09:21:14;;;;;;;8.93;5.17;;;;;;;44.41;13.99;162935.16;1724477;83;21221;-80
2021/03/26 09:24:19;;;;;;;10.13;4.67;;;;;;;44.22;14.19;162885.33;1715692;83;21237;-84
2021/03/26 09:27:12;;;;;;;7.22;4.22;;;;;;;44.71;13.90;163017.25;1724094;83;21220;-80
2021/03/26 09:30:10;;;;;;;8.33;4.67;;;;;;;44.42;13.86;162939.22;1711515;83;21363;-83
2021/03/26 09:33:01;;;;;;;13.60;5.12;;;;;;;43.91;13.93;162800.66;1724438;83;21775;-82
2021/03/26 09:35:53;;;;;;;9.63;4.80;;;;;;;43.11;14.20;162585.44;1723920;83;21225;-82
2021/03/26 09:38:31;;;;;;;12.58;5.12;;;;;;;43.18;14.31;162604.28;1695896;84;21812;-83
2021/03/26 09:41:31;;;;;;;10.72;4.97;;;;;;;44.00;14.10;162826.17;1710386;83;21230;-82
2021/03/26 09:44:21;;;;;;;8.80;5.15;;;;;;;44.29;14.24;162904.25;1722119;82;21291;-80
2021/03/26 09:47:04;;;;;;;10.28;4.97;;;;;;;44.32;14.09;162912.33;1720678;83;21221;-79
2021/03/26 09:49:44;;;;;;;6.97;4.22;;;;;;;43.84;14.12;162783.12;1711437;83;21970;-82
2021/03/26 09:52:22;;;;;;;9.45;4.72;;;;;;;43.85;14.12;162784.44;1724292;82;21206;-83
2021/03/26 09:55:17;;;;;;;10.60;4.47;;;;;;;44.69;13.86;163011.86;1724085;82;21775;-81
2021/03/26 09:58:14;;;;;;;11.08;5.03;;;;;;;44.95;13.62;163081.83;1723202;83;21226;-82
2021/03/26 10:01:13;;;;;;;8.48;4.67;;;;;;;45.53;13.39;163238.03;1724396;82;21237;-84
2021/03/26 10:04:08;;;;;;;11.12;4.70;;;;;;;47.17;13.25;163683.94;1724294;83;21237;-83
2021/03/26 10:07:18;;;;;;;11.65;4.65;;;;;;;47.17;13.25;163683.94;1724173;83;21198;-83
2021/03/26 10:10:42;;;;;;;10.95;4.28;;;;;;;47.99;12.75;163905.00;1726639;81;21248;-83
2021/03/26 10:12:26;;;;;;;10.25;5.03;;;;;;;48.35;12.65;164003.47;1723933;83;21225;-82
2021/03/26 10:15:05;;;;;;;8.98;4.92;;;;;;;48.30;12.32;163989.97;1727556;83;22492;-83
2021/03/26 10:18:10;;;;;;;9.78;5.30;;;;;;;47.54;12.71;163782.36;1727403;83;21225;-82
2021/03/26 10:20:57;;;;;;;9.68;4.65;;;;;;;47.04;12.42;163647.53;1727316;83;21447;-82
2021/03/26 10:23:57;;;;;;;6.35;4.45;;;;;;;46.91;12.97;163612.50;1719359;83;21245;-82
2021/03/26 10:27:05;;;;;;;8.58;4.45;;;;;;;47.00;12.66;163636.73;1726491;83;21189;-82
2021/03/26 10:30:02;;;;;;;9.75;5.28;;;;;;;47.13;12.45;163671.75;1727232;83;21689;-82
2021/03/26 10:32:37;;;;;;;9.43;4.78;;;;;;;46.78;12.84;163578.80;1727258;83;21866;-82
2021/03/26 10:35:26;;;;;;;8.00;4.78;;;;;;;46.04;12.77;163376.70;1725939;83;21328;-81
2021/03/26 10:38:03;;;;;;;7.00;4.22;;;;;;;45.46;13.06;163220.53;1726272;83;21197;-83
2021/03/26 10:41:02;;;;;;;8.30;4.62;;;;;;;46.14;13.03;163405.05;1727319;83;21210;-83
2021/03/26 10:43:49;;;;;;;7.28;4.67;;;;;;;46.64;12.53;163539.75;1727320;83;21375;-81
2021/03/26 10:46:33;;;;;;;6.72;4.50;;;;;;;46.78;12.44;163577.42;1717541;83;21229;-80
2021/03/26 10:49:23;;;;;;;8.65;3.92;;;;;;;46.45;12.57;163487.19;1727397;83;21339;-81
2021/03/26 10:52:28;;;;;;;4.78;3.30;;;;;;;46.29;12.79;163445.45;1726482;83;21255;-83
2021/03/26 10:55:10;;;;;;;5.53;3.62;;;;;;;47.06;12.57;163652.92;1727405;83;22542;-81
2021/03/26 10:58:18;;;;;;;5.47;3.60;;;;;;;47.01;12.37;163639.42;1727615;83;21728;-83
2021/03/26 11:01:12;;;;;;;6.70;3.40;;;;;;;46.99;12.07;163634.09;1721744;83;21177;-82
2021/03/26 11:03:55;;;;;;;3.47;2.75;;;;;;;46.69;12.06;163553.19;1704975;83;21190;-81
2021/03/26 11:06:51;;;;;;;5.60;3.15;;;;;;;47.02;11.97;163642.13;1696320;83;21197;-83
2021/03/26 11:09:45;;;;;;;8.98;4.30;;;;;;;47.47;12.07;163764.78;1727020;81;21863;-81
2021/03/26 11:12:55;;;;;;;5.10;3.40;;;;;;;48.32;12.10;163994.03;1724498;82;21438;-81
2021/03/26 11:15:35;;;;;;;6.10;3.40;;;;;;;48.74;11.53;164108.62;1724298;82;21689;-82
2021/03/26 11:18:20;;;;;;;3.47;2.80;;;;;;;48.41;11.65;164018.30;1724154;83;21206;-80
2021/03/26 11:21:07;;;;;;;5.03;3.20;;;;;;;48.19;11.65;163958.94;1724222;82;21236;-83
2021/03/26 11:23:41;;;;;;;3.65;3.08;;;;;;;48.32;11.65;163994.03;1696865;83;21364;-82
2021/03/26 11:26:28;;;;;;;6.08;3.45;;;;;;;48.31;11.34;163991.34;1724012;83;22265;-84
2021/03/26 11:29:12;;;;;;;4.30;3.45;;;;;;;47.58;11.33;163793.09;1724326;83;21194;-83
2021/03/26 11:32:08;;;;;;;4.97;3.83;;;;;;;47.26;11.76;163706.84;1724137;83;21748;-82
2021/03/26 11:34:50;;;;;;;7.58;3.10;;;;;;;47.33;11.85;163727.06;1724226;83;21185;-82
2021/03/26 11:37:56;;;;;;;5.08;3.50;;;;;;;47.37;11.58;163737.84;1722896;83;21174;-83
2021/03/26 11:40:40;;;;;;;9.10;4.55;;;;;;;46.50;11.79;163502.05;1724461;83;21202;-76
2021/03/26 11:43:20;;;;;;;5.85;4.10;;;;;;;46.69;12.18;163553.19;1702952;82;21504;-81
2021/03/26 11:46:06;;;;;;;6.12;3.65;;;;;;;47.04;12.18;163648.91;1695489;83;21327;-86
2021/03/26 11:48:54;;;;;;;7.95;3.62;;;;;;;47.51;11.93;163775.58;1697502;83;21205;-87
2021/03/26 11:51:48;;;;;;;3.92;3.27;;;;;;;47.70;11.93;163825.44;1709959;82;21292;-82
2021/03/26 11:54:44;;;;;;;8.03;3.67;;;;;;;47.57;11.96;163790.45;1699621;83;21375;-79
2021/03/26 11:57:45;;;;;;;5.30;3.70;;;;;;;47.81;11.74;163856.45;1705709;83;21708;-78
2021/03/26 12:00:26;;;;;;;7.62;3.92;;;;;;;47.75;11.74;163838.94;1629034;86;21205;-79
2021/03/26 12:03:21;;;;;;;6.33;4.00;;;;;;;47.38;11.83;163739.17;1735073;81;21214;-78
2021/03/26 12:06:06;;;;;;;5.03;3.92;;;;;;;47.27;12.14;163709.53;1748371;79;21388;-77
2021/03/26 12:09:09;;;;;;;5.08;3.37;;;;;;;47.47;12.20;163764.78;1749248;81;22130;-79
2021/03/26 12:12:10;;;;;;;7.85;3.80;;;;;;;47.95;12.15;163894.25;1751943;80;21340;-79
2021/03/26 12:15:10;;;;;;;8.35;4.03;;;;;;;48.39;12.02;164014.22;1756726;81;21403;-80
2021/03/26 12:17:51;;;;;;;6.05;4.80;;;;;;;48.41;11.87;164018.30;1750167;79;21368;-80
2021/03/26 12:20:30;;;;;;;;;;;;;;;48.04;12.13;163918.50;1765144;79;21214;-78
2021/03/26 12:23:27;;;;;;;5.67;4.08;;;;;;;47.51;12.15;163774.20;1752910;81;20651;-79
2021/03/26 12:26:22;;;;;;;6.17;3.85;;;;;;;46.83;12.25;163590.97;1759495;81;21344;-82
2021/03/26 12:29:04;;;;;;;5.12;4.08;;;;;;;45.96;12.87;163356.50;1757031;79;21716;-81
2021/03/26 12:32:09;;;;;;;7.15;4.00;;;;;;;46.06;12.92;163382.09;1752094;79;21720;-80
2021/03/26 12:35:21;;;;;;;7.50;4.30;;;;;;;45.52;12.81;163235.33;1752750;81;22413;-80
2021/03/26 12:38:26;;;;;;;6.12;4.50;;;;;;;44.05;13.49;162839.64;1754686;81;21700;-80
2021/03/26 12:41:14;;;;;;;8.68;3.92;;;;;;;42.95;13.86;162541.05;1749969;81;21368;-79
2021/03/26 12:44:10;;;;;;;5.80;4.22;;;;;;;42.32;14.25;162370.31;1757470;81;21364;-79
2021/03/26 12:47:16;;;;;;;8.63;4.10;;;;;;;41.35;14.61;162108.36;1757218;81;21238;-80
2021/03/26 12:50:25;;;;;;;7.37;4.12;;;;;;;40.58;15.07;161901.59;1745567;79;21696;-76
2021/03/26 12:53:34;;;;;;;7.22;3.33;;;;;;;40.00;15.33;161745.91;1747920;81;21931;-77
2021/03/26 12:56:42;;;;;;;8.25;3.98;;;;;;;39.59;15.39;161634.53;1751072;81;21316;-77
2021/03/26 12:59:31;;;;;;;6.40;3.47;;;;;;;38.64;15.93;161376.97;1753248;81;21230;-78
2021/03/26 13:02:27;;;;;;;5.22;3.65;;;;;;;37.95;16.51;161192.02;1740949;79;21348;-76
2021/03/26 13:05:04;;;;;;;5.05;3.20;;;;;;;37.68;16.54;161119.63;1757314;81;21383;-79